createdAt,value
2022-09-12T00:01:08.000Z,2.58
2022-09-12T00:03:35.412Z,2.38
2022-09-12T00:06:08.214Z,2.70
2022-09-12T00:08:35.228Z,3.72
2022-09-12T00:11:07.636Z,2.55
2022-09-12T00:13:39.531Z,2.67
2022-09-12T00:16:21.294Z,2.60
2022-09-12T00:18:48.943Z,2.33
2022-09-12T00:21:18.262Z,2.58
2022-09-12T00:23:45.886Z,2.20
2022-09-12T00:26:13.685Z,2.03
2022-09-12T00:28:41.484Z,2.53
2022-09-12T00:31:18.879Z,2.28
2022-09-12T00:33:46.053Z,2.30
2022-09-12T00:36:17.311Z,2.70
2022-09-12T00:38:45.714Z,2.08
2022-09-12T00:41:33.408Z,2.47
2022-09-12T00:44:12.674Z,2.38
2022-09-12T00:47:15.765Z,2.65
2022-09-12T00:50:13.984Z,2.65
2022-09-12T00:52:48.112Z,2.47
2022-09-12T00:55:23.933Z,2.90
2022-09-12T00:58:05.037Z,2.00
2022-09-12T01:00:32.439Z,1.92
2022-09-12T01:03:06.185Z,1.70
2022-09-12T01:05:37.846Z,2.42
2022-09-12T01:08:06.073Z,2.72
2022-09-12T01:10:35.898Z,1.95
2022-09-12T01:13:07.245Z,2.40
2022-09-12T01:15:35.069Z,2.75
2022-09-12T01:18:19.154Z,2.88
2022-09-12T01:21:16.430Z,3.08
2022-09-12T01:23:54.950Z,2.95
2022-09-12T01:26:57.779Z,2.42
2022-09-12T01:29:45.520Z,3.10
2022-09-12T01:32:47.025Z,2.75
2022-09-12T01:35:28.576Z,2.88
2022-09-12T01:38:17.773Z,2.42
2022-09-12T01:41:22.930Z,2.13
2022-09-12T01:44:01.761Z,1.90
2022-09-12T01:46:41.807Z,2.40
2022-09-12T01:49:32.974Z,2.42
2022-09-12T01:52:11.364Z,2.72
2022-09-12T01:54:48.189Z,3.22
2022-09-12T01:57:25.731Z,2.20
2022-09-12T02:00:01.200Z,2.55
2022-09-12T02:02:49.145Z,2.75
2022-09-12T02:05:39.389Z,2.97
2022-09-12T02:08:15.674Z,2.92
2022-09-12T02:11:10.674Z,2.90
2022-09-12T02:13:56.897Z,2.95
2022-09-12T02:16:36.701Z,3.00
2022-09-12T02:19:19.561Z,2.35
2022-09-12T02:21:55.496Z,2.83
2022-09-12T02:24:44.219Z,3.08
2022-09-12T02:27:49.540Z,2.28
2022-09-12T02:30:17.733Z,2.72
2022-09-12T02:33:07.019Z,2.92
2022-09-12T02:35:47.357Z,2.50
2022-09-12T02:38:28.451Z,2.90
2022-09-12T02:40:55.266Z,2.42
2022-09-12T02:43:22.022Z,2.25
2022-09-12T02:45:48.954Z,1.98
2022-09-12T02:48:29.338Z,2.47
2022-09-12T02:50:56.528Z,2.70
2022-09-12T02:53:25.920Z,2.60
2022-09-12T02:55:53.195Z,2.92
2022-09-12T02:58:26.501Z,2.67
2022-09-12T03:01:23.160Z,3.05
2022-09-12T03:04:34.871Z,2.80
2022-09-12T03:07:20.006Z,3.05
2022-09-12T03:10:03.828Z,2.65
2022-09-12T03:12:46.669Z,2.90
2022-09-12T03:15:42.249Z,2.70
2022-09-12T03:18:34.886Z,2.63
2022-09-12T03:21:27.598Z,2.70
2022-09-12T03:24:18.742Z,3.45
2022-09-12T03:26:56.581Z,2.50
2022-09-12T03:29:26.274Z,2.78
2022-09-12T03:31:58.264Z,3.03
2022-09-12T03:34:27.815Z,3.00
2022-09-12T03:36:55.626Z,2.55
2022-09-12T03:39:24.552Z,2.05
2022-09-12T03:41:51.909Z,3.60
2022-09-12T03:44:19.804Z,2.10
2022-09-12T03:46:46.572Z,2.95
2022-09-12T03:49:13.665Z,2.42
2022-09-12T03:51:40.898Z,3.15
2022-09-12T03:54:07.680Z,3.13
2022-09-12T03:56:35.347Z,2.67
2022-09-12T03:59:05.361Z,2.78
2022-09-12T04:01:32.326Z,2.67
2022-09-12T04:03:59.089Z,2.70
2022-09-12T04:06:25.813Z,3.05
2022-09-12T04:08:54.854Z,2.63
2022-09-12T04:11:22.916Z,2.45
2022-09-12T04:13:50.061Z,2.38
2022-09-12T04:16:18.107Z,3.03
2022-09-12T04:18:46.209Z,2.75
2022-09-12T04:21:17.625Z,2.53
2022-09-12T04:23:45.070Z,2.35
2022-09-12T04:26:13.888Z,2.60
2022-09-12T04:28:41.743Z,2.55
2022-09-12T04:31:20.805Z,2.33
2022-09-12T04:33:47.554Z,2.25
2022-09-12T04:36:17.793Z,3.08
2022-09-12T04:38:46.991Z,2.28
2022-09-12T04:41:18.247Z,2.83
2022-09-12T04:43:48.675Z,2.42
2022-09-12T04:46:20.095Z,3.08
2022-09-12T04:48:47.902Z,3.20
2022-09-12T04:51:21.155Z,3.47
2022-09-12T04:53:51.989Z,3.25
2022-09-12T04:56:20.764Z,3.33
2022-09-12T04:58:48.875Z,3.08
2022-09-12T05:01:21.276Z,3.30
2022-09-12T05:03:50.006Z,3.38
2022-09-12T05:06:20.835Z,3.83
2022-09-12T05:08:48.077Z,3.05
2022-09-12T05:11:22.798Z,3.30
2022-09-12T05:13:52.053Z,3.25
2022-09-12T05:16:20.930Z,3.72
2022-09-12T05:18:49.128Z,2.78
2022-09-12T05:21:19.457Z,2.85
2022-09-12T05:23:50.419Z,3.55
2022-09-12T05:26:18.518Z,2.83
2022-09-12T05:28:45.253Z,4.03
2022-09-12T05:31:14.830Z,2.53
2022-09-12T05:33:44.074Z,2.83
2022-09-12T05:36:19.784Z,4.78
2022-09-12T05:38:47.766Z,2.70
2022-09-12T05:41:24.665Z,1.98
2022-09-12T05:43:57.718Z,2.63
2022-09-12T05:46:29.474Z,2.50
2022-09-12T05:48:57.445Z,2.45
2022-09-12T05:51:35.260Z,2.75
2022-09-12T05:54:04.794Z,2.33
2022-09-12T05:56:34.488Z,2.30
2022-09-12T05:59:04.803Z,3.00
2022-09-12T06:01:34.056Z,2.72
2022-09-12T06:04:05.435Z,3.08
2022-09-12T06:06:37.186Z,3.28
2022-09-12T06:09:05.311Z,3.17
2022-09-12T06:11:34.742Z,3.38
2022-09-12T06:14:02.109Z,3.45
2022-09-12T06:16:33.208Z,3.78
2022-09-12T06:19:04.709Z,4.57
2022-09-12T06:21:31.478Z,4.47
2022-09-12T06:23:59.092Z,4.18
2022-09-12T06:26:27.145Z,3.65
2022-09-12T06:28:56.745Z,4.25
2022-09-12T06:31:27.955Z,3.53
2022-09-12T06:33:56.201Z,4.68
2022-09-12T06:36:29.607Z,4.03
2022-09-12T06:39:04.226Z,3.95
2022-09-12T06:41:32.486Z,2.83
2022-09-12T06:44:00.613Z,3.08
2022-09-12T06:46:28.408Z,3.03
2022-09-12T06:49:00.702Z,2.90
2022-09-12T06:51:29.095Z,2.45
2022-09-12T06:53:57.647Z,3.20
2022-09-12T06:56:27.429Z,2.72
2022-09-12T06:58:57.621Z,2.65
2022-09-12T07:01:28.013Z,2.80
2022-09-12T07:04:00.759Z,2.10
2022-09-12T07:06:33.654Z,2.30
2022-09-12T07:09:03.544Z,2.45
2022-09-12T07:11:36.761Z,2.72
2022-09-12T07:14:06.512Z,2.38
2022-09-12T07:16:36.679Z,2.03
2022-09-12T07:19:06.427Z,2.60
2022-09-12T07:21:33.289Z,1.83
2022-09-12T07:24:00.043Z,2.40
2022-09-12T07:26:29.139Z,2.55
2022-09-12T07:29:18.720Z,1.80
2022-09-12T07:31:45.469Z,1.50
2022-09-12T07:34:12.205Z,2.13
2022-09-12T07:36:39.291Z,2.88
2022-09-12T07:39:06.215Z,3.63
2022-09-12T07:41:36.119Z,2.85
2022-09-12T07:44:04.595Z,2.20
2022-09-12T07:46:31.682Z,2.88
2022-09-12T07:49:00.823Z,2.22
2022-09-12T07:51:30.283Z,2.50
2022-09-12T07:53:57.737Z,2.30
2022-09-12T07:56:29.698Z,3.08
2022-09-12T07:58:57.538Z,2.50
2022-09-12T08:01:24.986Z,2.78
2022-09-12T08:03:58.102Z,2.55
2022-09-12T08:08:55.621Z,2.60
2022-09-12T08:11:23.845Z,2.17
2022-09-12T08:13:55.315Z,2.50
2022-09-12T08:16:27.392Z,2.42
2022-09-12T08:18:54.634Z,2.60
2022-09-12T08:21:24.804Z,2.33
2022-09-12T08:24:04.113Z,1.95
2022-09-12T08:26:32.846Z,1.65
2022-09-12T08:28:59.982Z,1.70
2022-09-12T08:31:28.397Z,1.25
2022-09-12T08:33:56.874Z,1.10
2022-09-12T08:36:26.810Z,0.80
2022-09-12T08:39:04.940Z,1.02
2022-09-12T08:41:46.201Z,0.98
2022-09-12T08:45:03.451Z,1.05
2022-09-12T08:47:39.133Z,1.88
2022-09-12T08:50:08.750Z,0.95
2022-09-12T08:53:14.786Z,0.82
2022-09-12T08:55:59.261Z,0.95
2022-09-12T08:58:29.063Z,1.48
2022-09-12T09:01:07.568Z,0.90
2022-09-12T09:04:14.193Z,1.00
2022-09-12T09:07:26.014Z,0.50
2022-09-12T09:10:12.558Z,2.25
2022-09-12T09:13:39.892Z,1.05
2022-09-12T09:16:21.577Z,1.10
2022-09-12T09:18:49.651Z,1.00
2022-09-12T09:21:39.941Z,0.93
2022-09-12T09:24:12.166Z,0.55
2022-09-12T09:26:44.467Z,0.53
2022-09-12T09:29:24.077Z,1.00
2022-09-12T09:31:56.070Z,0.80
2022-09-12T09:34:27.004Z,0.95
2022-09-12T09:37:05.910Z,0.77
2022-09-12T09:40:10.037Z,1.00
2022-09-12T09:42:59.185Z,0.80
2022-09-12T09:45:29.258Z,0.60
2022-09-12T09:48:16.849Z,0.60
2022-09-12T09:50:44.142Z,0.43
2022-09-12T09:53:46.389Z,0.55
2022-09-12T09:56:48.538Z,0.70
2022-09-12T09:59:29.839Z,1.42
2022-09-12T10:02:23.643Z,1.05
2022-09-12T10:04:57.589Z,0.80
2022-09-12T10:07:25.429Z,0.60
2022-09-12T10:10:13.504Z,0.60
2022-09-12T10:12:40.731Z,0.65
2022-09-12T10:15:26.638Z,0.60
2022-09-12T10:17:55.845Z,0.57
2022-09-12T10:20:43.001Z,0.30
2022-09-12T10:23:37.557Z,0.57
2022-09-12T10:26:11.721Z,0.40
2022-09-12T10:28:43.492Z,0.45
2022-09-12T10:31:28.995Z,0.52
2022-09-12T10:34:00.169Z,0.57
2022-09-12T10:36:37.605Z,0.52
2022-09-12T10:39:05.641Z,0.60
2022-09-12T10:41:41.066Z,0.70
2022-09-12T10:44:15.921Z,1.13
2022-09-12T10:46:42.823Z,0.50
2022-09-12T10:49:38.142Z,0.60
2022-09-12T10:52:25.045Z,0.85
2022-09-12T10:54:52.549Z,0.60
2022-09-12T10:57:31.150Z,0.50
2022-09-12T11:00:17.958Z,0.30
2022-09-12T11:03:16.180Z,0.40
2022-09-12T11:06:01.585Z,0.40
2022-09-12T11:09:17.631Z,0.20
2022-09-12T11:11:59.728Z,0.63
2022-09-12T11:14:44.344Z,0.90
2022-09-12T11:17:34.016Z,0.47
2022-09-12T11:20:23.837Z,0.50
2022-09-12T11:23:11.020Z,0.40
2022-09-12T11:26:07.317Z,0.60
2022-09-12T11:29:00.793Z,0.45
2022-09-12T11:34:58.390Z,0.30
2022-09-12T11:37:30.552Z,0.30
2022-09-12T11:40:23.172Z,0.40
2022-09-12T11:42:54.897Z,0.30
2022-09-12T11:45:37.332Z,0.28
2022-09-12T11:48:12.663Z,0.27
2022-09-12T11:50:39.395Z,0.45
2022-09-12T11:53:23.322Z,0.40
2022-09-12T11:56:04.398Z,0.40
2022-09-12T11:58:31.566Z,0.40
2022-09-12T12:01:16.125Z,0.40
2022-09-12T12:03:46.411Z,0.68
2022-09-12T12:06:22.005Z,0.40
2022-09-12T12:08:50.735Z,0.50
2022-09-12T12:11:34.191Z,0.43
2022-09-12T12:14:23.474Z,0.30
2022-09-12T12:16:50.990Z,0.15
2022-09-12T12:19:17.631Z,0.30
2022-09-12T12:21:50.389Z,0.30
2022-09-12T12:24:24.347Z,0.35
2022-09-12T12:26:53.517Z,0.30
2022-09-12T12:29:20.221Z,0.55
2022-09-12T12:32:08.022Z,0.30
2022-09-12T12:34:42.428Z,0.50
2022-09-12T12:37:29.792Z,0.60
2022-09-12T12:40:04.662Z,0.20
2022-09-12T12:42:34.421Z,0.35
2022-09-12T12:45:09.938Z,0.30
2022-09-12T12:47:36.565Z,0.20
2022-09-12T12:50:21.202Z,0.30
2022-09-12T12:52:54.769Z,0.43
2022-09-12T12:55:42.536Z,0.13
2022-09-12T12:58:33.188Z,0.28
2022-09-12T13:01:19.400Z,0.10
2022-09-12T13:04:02.158Z,0.47
2022-09-12T13:06:38.119Z,0.40
2022-09-12T13:09:09.964Z,0.30
2022-09-12T13:11:39.403Z,0.38
2022-09-12T13:14:42.527Z,0.40
2022-09-12T13:17:22.827Z,0.28
2022-09-12T13:20:00.767Z,0.47
2022-09-12T13:22:46.246Z,0.30
2022-09-12T13:25:31.045Z,0.55
2022-09-12T13:28:12.789Z,0.50
2022-09-12T13:30:56.334Z,0.40
2022-09-12T13:33:47.746Z,0.30
2022-09-12T13:36:44.341Z,0.40
2022-09-12T13:39:44.723Z,0.20
2022-09-12T13:42:34.681Z,0.40
2022-09-12T13:45:20.669Z,0.32
2022-09-12T13:47:54.282Z,0.57
2022-09-12T13:50:31.961Z,0.30
2022-09-12T13:53:05.476Z,0.35
2022-09-12T13:55:38.384Z,0.20
2022-09-12T14:00:35.170Z,0.38
2022-09-12T14:03:43.338Z,0.43
2022-09-12T14:06:11.007Z,0.30
2022-09-12T14:08:41.649Z,0.50
2022-09-12T14:11:20.514Z,0.40
2022-09-12T14:13:48.305Z,0.40
2022-09-12T14:16:17.162Z,0.50
2022-09-12T14:18:48.142Z,0.70
2022-09-12T14:21:36.569Z,0.35
2022-09-12T14:24:07.036Z,0.30
2022-09-12T14:26:36.832Z,0.80
2022-09-12T14:29:08.006Z,0.20
2022-09-12T14:31:37.979Z,0.93
2022-09-12T14:34:16.306Z,0.40
2022-09-12T14:36:48.545Z,0.30
2022-09-12T14:39:41.592Z,0.50
2022-09-12T14:42:22.794Z,0.60
2022-09-12T14:44:58.533Z,0.68
2022-09-12T14:47:28.630Z,0.30
2022-09-12T14:49:55.437Z,0.38
2022-09-12T14:52:30.990Z,0.40
2022-09-12T14:55:20.179Z,0.30
2022-09-12T14:57:47.991Z,0.30
2022-09-12T15:00:20.970Z,0.13
2022-09-12T15:02:49.886Z,0.30
2022-09-12T15:05:22.297Z,0.50
2022-09-12T15:08:02.780Z,0.20
2022-09-12T15:10:36.687Z,0.30
2022-09-12T15:13:04.750Z,0.30
2022-09-12T15:15:32.676Z,0.45
2022-09-12T15:18:01.420Z,0.20
2022-09-12T15:20:32.770Z,0.30
2022-09-12T15:22:59.509Z,0.30
2022-09-12T15:25:26.504Z,0.30
2022-09-12T15:27:56.051Z,0.40
2022-09-12T15:30:22.810Z,0.30
2022-09-12T15:32:49.539Z,0.50
2022-09-12T15:35:23.718Z,0.35
2022-09-12T15:37:50.949Z,0.20
2022-09-12T15:40:20.907Z,0.20
2022-09-12T15:42:47.710Z,0.30
2022-09-12T15:45:21.879Z,0.25
2022-09-12T15:47:48.666Z,0.25
2022-09-12T15:50:15.472Z,0.30
2022-09-12T15:52:42.808Z,0.30
2022-09-12T15:55:22.181Z,0.57
2022-09-12T15:57:49.719Z,0.55
2022-09-12T16:00:18.122Z,0.22
2022-09-12T16:02:47.342Z,0.30
2022-09-12T16:05:22.026Z,0.28
2022-09-12T16:07:53.049Z,0.45
2022-09-12T16:10:24.823Z,0.47
2022-09-12T16:12:51.812Z,0.40
2022-09-12T16:15:22.030Z,0.38
2022-09-12T16:17:49.857Z,0.90
2022-09-12T16:20:17.449Z,0.32
2022-09-12T16:22:44.238Z,0.70
2022-09-12T16:25:11.065Z,0.47
2022-09-12T16:27:38.163Z,0.57
2022-09-12T16:30:07.548Z,0.47
2022-09-12T16:32:34.435Z,0.35
2022-09-12T16:35:01.250Z,0.30
2022-09-12T16:37:28.571Z,0.43
2022-09-12T16:39:55.736Z,0.38
2022-09-12T16:42:23.059Z,0.45
2022-09-12T16:44:49.793Z,0.60
2022-09-12T16:47:16.675Z,0.30
2022-09-12T16:49:43.454Z,0.70
2022-09-12T16:52:12.708Z,0.22
2022-09-12T16:54:39.721Z,0.28
2022-09-12T16:57:06.749Z,0.28
2022-09-12T16:59:33.643Z,0.43
2022-09-12T17:02:00.427Z,0.30
2022-09-12T17:04:27.433Z,0.52
2022-09-12T17:06:54.162Z,0.70
2022-09-12T17:09:22.089Z,0.45
2022-09-12T17:11:50.300Z,0.50
2022-09-12T17:14:17.275Z,0.35
2022-09-12T17:16:51.521Z,0.40
2022-09-12T17:19:30.005Z,0.38
2022-09-12T17:21:58.010Z,0.73
2022-09-12T17:24:25.697Z,0.47
2022-09-12T17:26:53.672Z,0.28
2022-09-12T17:29:21.002Z,0.35
2022-09-12T17:31:48.242Z,0.40
2022-09-12T17:34:16.359Z,0.30
2022-09-12T17:36:44.728Z,0.35
2022-09-12T17:39:13.246Z,0.60
2022-09-12T17:41:42.947Z,0.63
2022-09-12T17:44:14.298Z,0.60
2022-09-12T17:46:42.571Z,0.63
2022-09-12T17:49:14.397Z,0.32
2022-09-12T17:51:41.974Z,0.30
2022-09-12T17:54:14.108Z,0.40
2022-09-12T17:56:41.145Z,0.47
2022-09-12T17:59:13.629Z,0.32
2022-09-12T18:01:59.233Z,0.82
2022-09-12T18:04:27.211Z,0.50
2022-09-12T18:06:54.334Z,0.68
2022-09-12T18:09:24.929Z,0.73
2022-09-12T18:11:53.116Z,0.65
2022-09-12T18:14:20.689Z,1.25
2022-09-12T18:16:48.310Z,0.52
2022-09-12T18:19:16.107Z,1.00
2022-09-12T18:21:43.145Z,0.88
2022-09-12T18:24:10.775Z,0.93
2022-09-12T18:26:38.100Z,0.90
2022-09-12T18:29:04.923Z,1.02
2022-09-12T18:31:31.892Z,0.90
2022-09-12T18:34:02.729Z,0.75
2022-09-12T18:36:30.747Z,0.73
2022-09-12T18:38:59.162Z,0.85
2022-09-12T18:41:27.006Z,0.60
2022-09-12T18:43:59.037Z,1.00
2022-09-12T18:46:28.561Z,0.80
2022-09-12T18:48:58.105Z,0.63
2022-09-12T18:51:33.623Z,0.93
2022-09-12T18:54:06.300Z,1.02
2022-09-12T18:56:37.697Z,0.60
2022-09-12T18:59:06.947Z,1.13
2022-09-12T19:01:37.037Z,0.50
2022-09-12T19:04:05.112Z,0.47
2022-09-12T19:06:44.601Z,0.52
2022-09-12T19:09:14.189Z,1.10
2022-09-12T19:11:48.813Z,0.85
2022-09-12T19:14:18.496Z,0.57
2022-09-12T19:16:45.731Z,0.60
2022-09-12T19:19:12.426Z,0.77
2022-09-12T19:21:39.141Z,0.80
2022-09-12T19:24:11.334Z,0.90
2022-09-12T19:26:39.211Z,0.50
2022-09-12T19:29:07.175Z,0.50
2022-09-12T19:31:34.595Z,0.90
2022-09-12T19:34:07.956Z,0.60
2022-09-12T19:36:50.723Z,0.40
2022-09-12T19:39:19.757Z,1.10
2022-09-12T19:41:47.554Z,0.30
2022-09-12T19:44:14.399Z,0.40
2022-09-12T19:46:41.147Z,0.52
2022-09-12T19:49:09.370Z,0.60
2022-09-12T19:51:36.076Z,1.00
2022-09-12T19:54:03.087Z,0.50
2022-09-12T19:56:29.891Z,0.70
2022-09-12T19:58:57.023Z,0.50
2022-09-12T20:01:30.769Z,0.77
2022-09-12T20:03:58.737Z,0.70
2022-09-12T20:06:26.542Z,0.50
2022-09-12T20:08:54.179Z,0.60
2022-09-12T20:11:23.548Z,0.45
2022-09-12T20:13:50.742Z,0.50
2022-09-12T20:16:22.752Z,0.40
2022-09-12T20:19:02.527Z,0.52
2022-09-12T20:21:32.261Z,0.63
2022-09-12T20:24:10.023Z,0.65
2022-09-12T20:26:37.102Z,0.60
2022-09-12T20:29:05.580Z,0.50
2022-09-12T20:31:33.571Z,0.40
2022-09-12T20:34:00.648Z,0.75
2022-09-12T20:36:27.620Z,0.63
2022-09-12T20:38:58.055Z,0.73
2022-09-12T20:41:26.700Z,0.55
2022-09-12T20:43:55.629Z,0.60
2022-09-12T20:46:24.493Z,0.60
2022-09-12T20:48:52.115Z,0.50
2022-09-12T20:51:21.073Z,0.60
2022-09-12T20:53:48.747Z,0.50
2022-09-12T20:56:15.658Z,0.70
2022-09-12T20:58:44.433Z,0.63
2022-09-12T21:01:13.406Z,0.60
2022-09-12T21:03:42.062Z,0.50
2022-09-12T21:06:10.264Z,1.00
2022-09-12T21:08:37.540Z,0.80
2022-09-12T21:11:05.658Z,0.68
2022-09-12T21:13:32.958Z,0.70
2022-09-12T21:16:21.087Z,0.55
2022-09-12T21:18:53.953Z,0.50
2022-09-12T21:21:22.557Z,0.57
2022-09-12T21:23:50.926Z,0.85
2022-09-12T21:26:18.416Z,0.68
2022-09-12T21:28:45.162Z,0.50
2022-09-12T21:31:12.090Z,0.70
2022-09-12T21:33:38.910Z,0.85
2022-09-12T21:36:07.154Z,0.60
2022-09-12T21:38:34.702Z,0.60
2022-09-12T21:41:13.886Z,0.93
2022-09-12T21:43:41.082Z,1.55
2022-09-12T21:46:08.539Z,0.55
2022-09-12T21:48:36.442Z,0.47
2022-09-12T21:51:04.283Z,0.55
2022-09-12T21:53:32.001Z,1.00
2022-09-12T21:56:07.541Z,0.77
2022-09-12T21:58:35.651Z,0.90
2022-09-12T22:01:02.985Z,1.23
2022-09-12T22:03:30.111Z,0.70
2022-09-12T22:05:59.259Z,1.00
2022-09-12T22:08:26.810Z,0.85
2022-09-12T22:10:56.967Z,0.90
2022-09-12T22:13:24.235Z,0.75
2022-09-12T22:15:52.147Z,0.52
2022-09-12T22:18:19.293Z,0.43
2022-09-12T22:20:46.337Z,0.88
2022-09-12T22:23:32.209Z,0.50
2022-09-12T22:26:01.480Z,0.88
2022-09-12T22:28:29.889Z,0.80
2022-09-12T22:30:56.929Z,0.77
2022-09-12T22:33:23.718Z,0.68
2022-09-12T22:35:50.455Z,0.98
2022-09-12T22:38:17.221Z,1.20
2022-09-12T22:40:44.070Z,0.60
2022-09-12T22:43:12.020Z,0.55
2022-09-12T22:45:42.025Z,0.75
2022-09-12T22:48:09.420Z,0.70
2022-09-12T22:50:36.341Z,0.90
2022-09-12T22:53:03.091Z,0.70
2022-09-12T22:55:29.915Z,0.80
2022-09-12T22:57:56.656Z,0.90
2022-09-12T23:00:23.867Z,0.95
2022-09-12T23:02:50.655Z,0.80
2022-09-12T23:05:17.453Z,1.00
2022-09-12T23:07:44.282Z,0.90
2022-09-12T23:10:11.137Z,0.60
2022-09-12T23:12:37.940Z,0.65
2022-09-12T23:15:05.703Z,0.85
2022-09-12T23:17:34.675Z,0.70
2022-09-12T23:20:02.730Z,0.80
2022-09-12T23:22:29.497Z,0.70
2022-09-12T23:24:56.277Z,0.50
2022-09-12T23:27:23.311Z,0.80
2022-09-12T23:29:52.455Z,1.25
2022-09-12T23:32:20.261Z,0.90
2022-09-12T23:34:48.471Z,0.88
2022-09-12T23:37:15.782Z,0.60
2022-09-12T23:39:42.808Z,0.88
2022-09-12T23:42:09.642Z,0.80
2022-09-12T23:44:36.354Z,0.70
2022-09-12T23:47:03.316Z,0.82
2022-09-12T23:49:30.333Z,0.90
2022-09-12T23:51:57.091Z,1.05
2022-09-12T23:54:25.146Z,0.65
2022-09-12T23:56:52.215Z,1.13
2022-09-12T23:59:19.030Z,1.00
